Airfield :
LOGIN :

Register | Disclaimer

   EN    FR    IT 

 










Legend :    VFR   Marginal VFR   IFR   Intensive IFR   Very Intensive IFR
Visi :
Ceiling :
>= 8 km
>= 3000ft
5 to 8 km
1000 to 3000 ft
1500m to 5 km
500 to 1000 ft
800 to 1500m
200 to 500 ft
< 800m
< 200 ft
Symbols :   Thunderstorms  Fog  Heavy snow  Heavy precipitations  Wind > 20 kt
SIGMETs :     Misc.  Thunderstorms  Icing  Turbulence  Mountain Waves  Volcanic Ashes






- Airport Elevation : 24 ft
- IATA code : FAO


LPFR - Faro

CURRENT METAR :
  • 220230Z 29006KT CAVOK 17/16 Q1012

EXPIRED METARs :
  • 220200Z 27011KT 9999 FEW010 17/16 Q1012
  • 220130Z 24012KT 9999 SCT010 SCT025 17/17 Q1013
  • 220100Z 24013KT 9999 SCT010 SCT025 17/17 Q1013
  • 220030Z 24011KT 9999 FEW010 SCT025 17/17 Q1013
  • 220000Z 23008KT 9999 SCT010 BKN018 17/17 Q1013

TAF TAF LPFR
Valid from the 22 at 00:00 until the 23 at 00:00 UTC


212300Z 2200/2224 25010KT 9999 SCT012 BKN025
BECMG 2200/2203 30007KT SCT025
BECMG 2210/2212 24012KT CAVOK
BECMG 2216/2218 28007KT



MET'MAP, your aeronautical weather chart ! - Copyright ORBIFLY December 2007 - Disclaimer

ORBIFLY MET'MAP TEAM :

Programming & Development : Alexandra Zaïnal
Concept & original design : Baudouin d'Aumeries
Assistance for programming : Marc-Olivier Méhu
Technical & hardware support : Manuel Goepfert

Contact : metmap@orbifly.com




SOURCES & CREDITS :

   NOAA